createdAt,value
2023-07-25T00:00:44.766Z,967.20
2023-07-25T00:01:44.781Z,967.18
2023-07-25T00:02:44.733Z,967.13
2023-07-25T00:03:44.745Z,967.10
2023-07-25T00:04:44.699Z,967.09
2023-07-25T00:05:44.684Z,967.03
2023-07-25T00:06:44.669Z,967.09
2023-07-25T00:07:44.652Z,967.12
2023-07-25T00:08:44.646Z,967.09
2023-07-25T00:09:44.637Z,967.16
2023-07-25T00:10:44.621Z,967.19
2023-07-25T00:11:44.616Z,967.13
2023-07-25T00:12:44.594Z,967.16
2023-07-25T00:13:44.593Z,967.12
2023-07-25T00:14:44.560Z,967.12
2023-07-25T00:15:44.546Z,967.04
2023-07-25T00:16:44.545Z,967.00
2023-07-25T00:17:44.584Z,967.03
2023-07-25T00:18:44.504Z,966.91
2023-07-25T00:19:44.518Z,967.04
2023-07-25T00:20:44.486Z,967.01
2023-07-25T00:21:44.513Z,966.95
2023-07-25T00:22:44.454Z,966.91
2023-07-25T00:23:44.451Z,966.85
2023-07-25T00:24:44.541Z,966.95
2023-07-25T00:25:44.435Z,966.84
2023-07-25T00:26:44.431Z,966.88
2023-07-25T00:27:44.405Z,966.80
2023-07-25T00:28:44.373Z,966.82
2023-07-25T00:29:44.368Z,966.80
2023-07-25T00:30:44.355Z,966.76
2023-07-25T00:31:44.374Z,966.79
2023-07-25T00:32:44.362Z,966.73
2023-07-25T00:33:44.312Z,966.62
2023-07-25T00:34:44.296Z,966.62
2023-07-25T00:35:44.317Z,966.67
2023-07-25T00:36:44.281Z,966.62
2023-07-25T00:37:44.268Z,966.57
2023-07-25T00:38:44.248Z,966.56
2023-07-25T00:39:44.231Z,966.55
2023-07-25T00:40:44.219Z,966.55
2023-07-25T00:41:44.204Z,966.56
2023-07-25T00:42:44.192Z,966.57
2023-07-25T00:43:44.181Z,966.65
2023-07-25T00:44:44.172Z,966.65
2023-07-25T00:45:44.454Z,966.61
2023-07-25T00:46:44.141Z,966.66
2023-07-25T00:47:44.169Z,966.61
2023-07-25T00:48:44.116Z,966.62
2023-07-25T00:49:44.107Z,966.68
2023-07-25T00:50:44.085Z,966.65
2023-07-25T00:51:44.101Z,966.64
2023-07-25T00:52:44.056Z,966.64
2023-07-25T00:53:44.062Z,966.62
2023-07-25T00:54:44.030Z,966.50
2023-07-25T00:55:44.022Z,966.48
2023-07-25T00:56:44.023Z,966.43
2023-07-25T00:57:43.993Z,966.46
2023-07-25T00:58:43.978Z,966.43
2023-07-25T00:59:44.120Z,966.43
2023-07-25T01:00:43.964Z,966.47
2023-07-25T01:01:43.978Z,966.45
2023-07-25T01:02:44.025Z,966.43
2023-07-25T01:03:44.021Z,966.35
2023-07-25T01:04:43.905Z,966.39
2023-07-25T01:05:43.898Z,966.46
2023-07-25T01:06:43.887Z,966.38
2023-07-25T01:07:43.895Z,966.36
2023-07-25T01:08:43.850Z,966.38
2023-07-25T01:09:43.845Z,966.34
2023-07-25T01:10:43.819Z,966.36
2023-07-25T01:11:43.808Z,966.29
2023-07-25T01:12:43.844Z,966.28
2023-07-25T01:13:43.779Z,966.28
2023-07-25T01:14:43.773Z,966.30
2023-07-25T01:15:43.783Z,966.31
2023-07-25T01:16:43.744Z,966.36
2023-07-25T01:17:43.769Z,966.47
2023-07-25T01:18:43.721Z,966.40
2023-07-25T01:19:43.707Z,966.45
2023-07-25T01:20:43.693Z,966.43
2023-07-25T01:21:43.679Z,966.43
2023-07-25T01:22:43.669Z,966.53
2023-07-25T01:23:43.670Z,966.52
2023-07-25T01:24:43.676Z,966.50
2023-07-25T01:25:43.621Z,966.44
2023-07-25T01:26:43.622Z,966.41
2023-07-25T01:27:43.591Z,966.35
2023-07-25T01:28:43.588Z,966.29
2023-07-25T01:29:43.594Z,966.27
2023-07-25T01:30:43.579Z,966.30
2023-07-25T01:31:43.548Z,966.31
2023-07-25T01:32:43.544Z,966.38
2023-07-25T01:33:43.549Z,966.28
2023-07-25T01:34:43.512Z,966.23
2023-07-25T01:35:43.494Z,966.30
2023-07-25T01:36:43.506Z,966.20
2023-07-25T01:37:43.474Z,966.22
2023-07-25T01:38:43.455Z,966.24
2023-07-25T01:39:43.463Z,966.19
2023-07-25T01:40:43.424Z,966.13
2023-07-25T01:41:43.415Z,965.99
2023-07-25T01:42:43.601Z,966.03
2023-07-25T01:43:43.393Z,966.02
2023-07-25T01:44:43.375Z,965.97
2023-07-25T01:45:43.432Z,966.12
2023-07-25T01:46:43.352Z,966.15
2023-07-25T01:47:43.396Z,966.11
2023-07-25T01:48:43.327Z,966.11
2023-07-25T01:49:43.311Z,966.12
2023-07-25T01:50:43.293Z,966.07
2023-07-25T01:51:43.281Z,966.08
2023-07-25T01:52:43.270Z,966.06
2023-07-25T01:53:43.256Z,966.05
2023-07-25T01:54:43.246Z,966.08
2023-07-25T01:55:43.277Z,966.10
2023-07-25T01:56:43.218Z,966.10
2023-07-25T01:57:43.207Z,966.01
2023-07-25T01:58:43.194Z,965.96
2023-07-25T01:59:43.174Z,965.91
2023-07-25T02:00:43.164Z,965.93
2023-07-25T02:01:43.187Z,965.95
2023-07-25T02:02:43.245Z,965.90
2023-07-25T02:03:43.139Z,965.88
2023-07-25T02:04:43.100Z,965.81
2023-07-25T02:05:43.104Z,965.84
2023-07-25T02:06:43.097Z,965.80
2023-07-25T02:07:43.064Z,965.77
2023-07-25T02:08:43.058Z,965.86
2023-07-25T02:09:43.041Z,965.92
2023-07-25T02:10:43.043Z,965.92
2023-07-25T02:11:43.038Z,965.95
2023-07-25T02:12:42.996Z,965.88
2023-07-25T02:13:42.997Z,965.84
2023-07-25T02:14:42.982Z,965.81
2023-07-25T02:15:42.975Z,965.75
2023-07-25T02:16:43.039Z,965.76
2023-07-25T02:17:42.972Z,965.72
2023-07-25T02:18:42.923Z,965.53
2023-07-25T02:19:42.907Z,965.50
2023-07-25T02:20:42.905Z,965.49
2023-07-25T02:21:42.890Z,965.43
2023-07-25T02:22:42.869Z,965.39
2023-07-25T02:23:42.877Z,965.38
2023-07-25T02:24:42.880Z,965.31
2023-07-25T02:25:42.827Z,965.27
2023-07-25T02:26:42.856Z,965.29
2023-07-25T02:27:42.822Z,965.32
2023-07-25T02:28:42.794Z,965.35
2023-07-25T02:29:42.783Z,965.32
2023-07-25T02:30:42.787Z,965.29
2023-07-25T02:31:42.760Z,965.25
2023-07-25T02:32:42.765Z,965.28
2023-07-25T02:33:42.721Z,965.21
2023-07-25T02:34:42.708Z,965.28
2023-07-25T02:35:42.694Z,965.26
2023-07-25T02:36:42.682Z,965.26
2023-07-25T02:37:42.672Z,965.24
2023-07-25T02:38:42.654Z,965.22
2023-07-25T02:39:42.642Z,965.28
2023-07-25T02:40:42.629Z,965.32
2023-07-25T02:41:42.613Z,965.34
2023-07-25T02:42:42.607Z,965.30
2023-07-25T02:43:42.612Z,965.34
2023-07-25T02:44:42.613Z,965.31
2023-07-25T02:45:42.564Z,965.30
2023-07-25T02:46:42.593Z,965.25
2023-07-25T02:47:42.586Z,965.33
2023-07-25T02:48:42.519Z,965.24
2023-07-25T02:49:42.513Z,965.29
2023-07-25T02:50:42.493Z,965.27
2023-07-25T02:51:42.780Z,965.26
2023-07-25T02:52:42.471Z,965.28
2023-07-25T02:53:42.455Z,965.26
2023-07-25T02:54:42.444Z,965.23
2023-07-25T02:55:42.428Z,965.19
2023-07-25T02:56:42.421Z,965.13
2023-07-25T02:57:42.413Z,965.21
2023-07-25T02:58:42.390Z,965.17
2023-07-25T02:59:42.390Z,965.16
2023-07-25T03:00:42.412Z,965.05
2023-07-25T03:01:42.369Z,965.07
2023-07-25T03:02:42.392Z,965.00
2023-07-25T03:03:42.320Z,964.94
2023-07-25T03:04:42.308Z,964.88
2023-07-25T03:05:42.294Z,964.83
2023-07-25T03:06:42.277Z,964.77
2023-07-25T03:07:42.267Z,964.78
2023-07-25T03:08:42.351Z,964.72
2023-07-25T03:09:42.250Z,964.74
2023-07-25T03:10:42.235Z,964.77
2023-07-25T03:11:42.207Z,964.70
2023-07-25T03:12:42.201Z,964.77
2023-07-25T03:13:42.192Z,964.77
2023-07-25T03:14:42.189Z,964.84
2023-07-25T03:15:42.213Z,964.87
2023-07-25T03:16:42.236Z,964.96
2023-07-25T03:17:44.715Z,965.03
2023-07-25T03:18:42.120Z,965.00
2023-07-25T03:19:42.120Z,965.03
2023-07-25T03:20:42.092Z,965.07
2023-07-25T03:21:42.083Z,965.10
2023-07-25T03:22:42.074Z,965.16
2023-07-25T03:23:42.058Z,965.07
2023-07-25T03:24:42.137Z,965.11
2023-07-25T03:25:42.019Z,965.24
2023-07-25T03:26:42.011Z,965.23
2023-07-25T03:27:41.992Z,965.25
2023-07-25T03:28:41.985Z,965.28
2023-07-25T03:29:41.967Z,965.25
2023-07-25T03:30:42.006Z,965.32
2023-07-25T03:31:41.972Z,965.32
2023-07-25T03:32:42.004Z,965.30
2023-07-25T03:33:41.916Z,965.32
2023-07-25T03:34:41.902Z,965.31
2023-07-25T03:35:41.890Z,965.28
2023-07-25T03:36:41.877Z,965.30
2023-07-25T03:37:41.880Z,965.33
2023-07-25T03:38:41.864Z,965.35
2023-07-25T03:39:41.847Z,965.39
2023-07-25T03:40:41.832Z,965.48
2023-07-25T03:41:41.828Z,965.48
2023-07-25T03:42:41.799Z,965.56
2023-07-25T03:43:41.778Z,965.55
2023-07-25T03:44:41.875Z,965.55
2023-07-25T03:45:41.754Z,965.62
2023-07-25T03:46:41.743Z,965.57
2023-07-25T03:47:41.795Z,965.53
2023-07-25T03:48:41.721Z,965.51
2023-07-25T03:49:41.704Z,965.54
2023-07-25T03:50:41.691Z,965.53
2023-07-25T03:51:41.683Z,965.54
2023-07-25T03:52:41.661Z,965.58
2023-07-25T03:53:41.662Z,965.57
2023-07-25T03:54:41.640Z,965.52
2023-07-25T03:55:41.625Z,965.56
2023-07-25T03:56:41.608Z,965.55
2023-07-25T03:57:41.602Z,965.50
2023-07-25T03:58:41.583Z,965.50
2023-07-25T03:59:41.575Z,965.55
2023-07-25T04:00:41.569Z,965.65
2023-07-25T04:01:41.562Z,965.66
2023-07-25T04:02:41.598Z,965.64
2023-07-25T04:03:41.640Z,965.65
2023-07-25T04:04:41.569Z,965.67
2023-07-25T04:05:41.495Z,965.64
2023-07-25T04:06:41.480Z,965.58
2023-07-25T04:07:41.457Z,965.57
2023-07-25T04:08:41.597Z,965.59
2023-07-25T04:09:41.445Z,965.49
2023-07-25T04:10:41.459Z,965.55
2023-07-25T04:11:41.420Z,965.55
2023-07-25T04:12:41.399Z,965.65
2023-07-25T04:13:41.382Z,965.54
2023-07-25T04:14:41.408Z,965.55
2023-07-25T04:15:41.380Z,965.55
2023-07-25T04:16:41.380Z,965.49
2023-07-25T04:17:41.581Z,965.51
2023-07-25T04:18:41.331Z,965.56
2023-07-25T04:19:41.723Z,965.50
2023-07-25T04:20:41.296Z,965.55
2023-07-25T04:21:41.274Z,965.57
2023-07-25T04:22:41.260Z,965.63
2023-07-25T04:23:41.247Z,965.59
2023-07-25T04:24:41.260Z,965.60
2023-07-25T04:25:41.217Z,965.56
2023-07-25T04:26:41.209Z,965.64
2023-07-25T04:27:41.200Z,965.64
2023-07-25T04:28:41.182Z,965.68
2023-07-25T04:29:41.167Z,965.67
2023-07-25T04:30:41.164Z,965.66
2023-07-25T04:31:41.395Z,965.68
2023-07-25T04:32:41.195Z,965.70
2023-07-25T04:33:41.118Z,965.73
2023-07-25T04:34:41.166Z,965.71
2023-07-25T04:35:41.113Z,965.66
2023-07-25T04:36:41.109Z,965.66
2023-07-25T04:37:41.057Z,965.55
2023-07-25T04:38:41.050Z,965.51
2023-07-25T04:39:41.032Z,965.50
2023-07-25T04:40:41.221Z,965.49
2023-07-25T04:41:41.003Z,965.48
2023-07-25T04:42:41.006Z,965.55
2023-07-25T04:43:40.982Z,965.60
2023-07-25T04:44:40.981Z,965.70
2023-07-25T04:45:41.003Z,965.69
2023-07-25T04:46:40.962Z,965.77
2023-07-25T04:47:40.954Z,965.80
2023-07-25T04:48:40.931Z,965.83
2023-07-25T04:49:41.163Z,965.96
2023-07-25T04:50:40.895Z,965.90
2023-07-25T04:51:40.907Z,965.93
2023-07-25T04:52:40.866Z,965.99
2023-07-25T04:53:40.847Z,966.05
2023-07-25T04:54:40.845Z,966.09
2023-07-25T04:55:40.826Z,966.11
2023-07-25T04:56:40.808Z,966.23
2023-07-25T04:57:40.796Z,966.15
2023-07-25T04:58:40.787Z,966.11
2023-07-25T04:59:40.775Z,966.04
2023-07-25T05:00:40.765Z,966.03
2023-07-25T05:01:40.794Z,966.09
2023-07-25T05:02:40.860Z,966.10
2023-07-25T05:03:40.748Z,966.10
2023-07-25T05:04:40.706Z,966.03
2023-07-25T05:05:40.689Z,965.95
2023-07-25T05:06:40.723Z,965.99
2023-07-25T05:07:40.688Z,965.98
2023-07-25T05:08:40.649Z,966.00
2023-07-25T05:09:40.685Z,965.95
2023-07-25T05:10:40.664Z,965.89
2023-07-25T05:11:40.660Z,965.95
2023-07-25T05:12:40.633Z,966.02
2023-07-25T05:13:40.709Z,965.96
2023-07-25T05:14:40.739Z,965.98
2023-07-25T05:15:40.613Z,965.93
2023-07-25T05:16:40.551Z,965.88
2023-07-25T05:17:40.559Z,965.95
2023-07-25T05:18:40.519Z,965.96
2023-07-25T05:19:40.508Z,965.98
2023-07-25T05:20:40.491Z,966.11
2023-07-25T05:21:40.504Z,966.04
2023-07-25T05:22:40.472Z,965.96
2023-07-25T05:23:40.474Z,965.90
2023-07-25T05:24:40.538Z,965.88
2023-07-25T05:25:40.444Z,965.82
2023-07-25T05:26:40.411Z,965.82
2023-07-25T05:27:40.401Z,965.75
2023-07-25T05:28:40.390Z,965.71
2023-07-25T05:29:40.376Z,965.68
2023-07-25T05:30:40.360Z,965.68
2023-07-25T05:31:40.413Z,965.69
2023-07-25T05:32:40.353Z,965.66
2023-07-25T05:33:40.322Z,965.76
2023-07-25T05:34:40.303Z,965.71
2023-07-25T05:35:40.331Z,965.77
2023-07-25T05:36:40.293Z,965.72
2023-07-25T05:37:40.305Z,965.71
2023-07-25T05:38:40.253Z,965.57
2023-07-25T05:39:40.265Z,965.63
2023-07-25T05:40:40.224Z,965.63
2023-07-25T05:41:40.207Z,965.62
2023-07-25T05:42:40.194Z,965.64
2023-07-25T05:43:40.185Z,965.66
2023-07-25T05:44:40.181Z,965.66
2023-07-25T05:45:40.181Z,965.68
2023-07-25T05:46:40.138Z,965.66
2023-07-25T05:47:40.156Z,965.60
2023-07-25T05:48:40.113Z,965.61
2023-07-25T05:49:40.105Z,965.54
2023-07-25T05:50:40.091Z,965.48
2023-07-25T05:51:40.069Z,965.59
2023-07-25T05:52:40.061Z,965.60
2023-07-25T05:53:40.053Z,965.67
2023-07-25T05:54:40.643Z,965.67
2023-07-25T05:55:40.055Z,965.64
2023-07-25T05:56:40.015Z,965.54
2023-07-25T05:57:39.999Z,965.52
2023-07-25T05:58:39.979Z,965.51
2023-07-25T05:59:39.965Z,965.53
2023-07-25T06:00:39.971Z,965.57
2023-07-25T06:01:40.042Z,965.62
2023-07-25T06:02:39.977Z,965.59
2023-07-25T06:03:39.957Z,965.60
2023-07-25T06:04:39.903Z,965.62
2023-07-25T06:05:39.897Z,965.62
2023-07-25T06:06:39.875Z,965.64
2023-07-25T06:07:39.873Z,965.75
2023-07-25T06:08:39.860Z,965.83
2023-07-25T06:09:39.994Z,965.84
2023-07-25T06:10:39.824Z,965.80
2023-07-25T06:11:39.848Z,965.77
2023-07-25T06:12:39.795Z,965.82
2023-07-25T06:13:39.817Z,965.88
2023-07-25T06:14:39.781Z,965.90
2023-07-25T06:15:39.774Z,965.88
2023-07-25T06:16:39.888Z,965.88
2023-07-25T06:17:39.754Z,965.83
2023-07-25T06:18:39.711Z,965.73
2023-07-25T06:19:39.753Z,965.72
2023-07-25T06:20:39.689Z,965.70
2023-07-25T06:21:40.038Z,965.60
2023-07-25T06:22:39.674Z,965.57
2023-07-25T06:23:39.651Z,965.56
2023-07-25T06:24:39.644Z,965.64
2023-07-25T06:25:39.623Z,965.68
2023-07-25T06:26:39.617Z,965.57
2023-07-25T06:27:39.624Z,965.54
2023-07-25T06:28:39.604Z,965.59
2023-07-25T06:29:39.569Z,965.62
2023-07-25T06:30:39.551Z,965.63
2023-07-25T06:31:39.559Z,965.55
2023-07-25T06:32:39.552Z,965.57
2023-07-25T06:33:39.518Z,965.59
2023-07-25T06:34:39.508Z,965.62
2023-07-25T06:35:39.493Z,965.63
2023-07-25T06:36:39.477Z,965.57
2023-07-25T06:37:39.464Z,965.63
2023-07-25T06:38:39.453Z,965.60
2023-07-25T06:39:39.441Z,965.57
2023-07-25T06:40:39.430Z,965.55
2023-07-25T06:41:39.420Z,965.60
2023-07-25T06:42:39.390Z,965.49
2023-07-25T06:43:39.656Z,965.47
2023-07-25T06:44:39.367Z,965.47
2023-07-25T06:45:39.361Z,965.51
2023-07-25T06:46:39.491Z,965.52
2023-07-25T06:47:39.517Z,965.53
2023-07-25T06:48:39.315Z,965.57
2023-07-25T06:49:39.309Z,965.54
2023-07-25T06:50:39.297Z,965.64
2023-07-25T06:51:39.279Z,965.60
2023-07-25T06:52:39.266Z,965.61
2023-07-25T06:53:39.254Z,965.60
2023-07-25T06:54:39.257Z,965.62
2023-07-25T06:55:39.227Z,965.59
2023-07-25T06:56:39.206Z,965.52
2023-07-25T06:57:39.200Z,965.54
2023-07-25T06:58:39.183Z,965.45
2023-07-25T06:59:39.195Z,965.52
2023-07-25T07:00:39.188Z,965.42
2023-07-25T07:01:39.157Z,965.46
2023-07-25T07:02:39.172Z,965.53
2023-07-25T07:03:39.119Z,965.48
2023-07-25T07:04:39.101Z,965.47
2023-07-25T07:05:39.089Z,965.46
2023-07-25T07:06:39.077Z,965.47
2023-07-25T07:07:39.061Z,965.46
2023-07-25T07:08:39.053Z,965.45
2023-07-25T07:09:39.058Z,965.46
2023-07-25T07:10:39.019Z,965.47
2023-07-25T07:11:39.016Z,965.41
2023-07-25T07:12:39.216Z,965.46
2023-07-25T07:13:38.980Z,965.42
2023-07-25T07:14:38.975Z,965.41
2023-07-25T07:15:38.993Z,965.45
2023-07-25T07:16:38.969Z,965.44
2023-07-25T07:17:38.949Z,965.44
2023-07-25T07:18:38.917Z,965.48
2023-07-25T07:19:38.905Z,965.51
2023-07-25T07:20:38.905Z,965.54
2023-07-25T07:21:38.878Z,965.51
2023-07-25T07:22:38.920Z,965.45
2023-07-25T07:23:38.854Z,965.37
2023-07-25T07:24:38.888Z,965.36
2023-07-25T07:25:38.826Z,965.38
2023-07-25T07:26:38.817Z,965.40
2023-07-25T07:27:39.008Z,965.43
2023-07-25T07:28:38.776Z,965.46
2023-07-25T07:29:38.768Z,965.36
2023-07-25T07:30:38.792Z,965.37
2023-07-25T07:31:38.974Z,965.38
2023-07-25T07:32:38.742Z,965.40
2023-07-25T07:33:38.720Z,965.41
2023-07-25T07:34:38.704Z,965.43
2023-07-25T07:35:38.906Z,965.46
2023-07-25T07:36:38.692Z,965.50
2023-07-25T07:37:38.672Z,965.44
2023-07-25T07:38:38.643Z,965.43
2023-07-25T07:39:38.652Z,965.46
2023-07-25T07:40:38.629Z,965.41
2023-07-25T07:41:38.615Z,965.39
2023-07-25T07:42:38.621Z,965.34
2023-07-25T07:43:38.588Z,965.32
2023-07-25T07:44:38.578Z,965.30
2023-07-25T07:45:38.558Z,965.30
2023-07-25T07:46:38.564Z,965.27
2023-07-25T07:47:38.562Z,965.33
2023-07-25T07:48:38.526Z,965.38
2023-07-25T07:49:38.649Z,965.36
2023-07-25T07:50:38.496Z,965.41
2023-07-25T07:51:38.480Z,965.39
2023-07-25T07:52:42.469Z,965.29
2023-07-25T07:53:38.456Z,965.39
2023-07-25T07:54:38.438Z,965.36
2023-07-25T07:55:38.427Z,965.35
2023-07-25T07:56:38.410Z,965.39
2023-07-25T07:57:38.395Z,965.34
2023-07-25T07:58:38.381Z,965.34
2023-07-25T07:59:38.421Z,965.29
2023-07-25T08:00:38.359Z,965.31
2023-07-25T08:01:41.290Z,965.25
2023-07-25T08:02:38.414Z,965.27
2023-07-25T08:03:38.337Z,965.31
2023-07-25T08:04:38.344Z,965.17
2023-07-25T08:05:38.290Z,965.11
2023-07-25T08:06:38.272Z,965.09
2023-07-25T08:07:38.264Z,965.10
2023-07-25T08:08:38.246Z,965.06
2023-07-25T08:09:38.244Z,965.05
2023-07-25T08:10:38.235Z,964.97
2023-07-25T08:11:38.206Z,964.96
2023-07-25T08:12:38.197Z,965.00
2023-07-25T08:13:38.182Z,964.93
2023-07-25T08:14:38.188Z,964.94
2023-07-25T08:15:38.162Z,965.00
2023-07-25T08:16:38.161Z,964.94
2023-07-25T08:17:38.167Z,965.03
2023-07-25T08:18:38.113Z,965.12
2023-07-25T08:19:38.129Z,965.22
2023-07-25T08:20:38.092Z,965.21
2023-07-25T08:21:38.609Z,965.09
2023-07-25T08:22:38.081Z,965.10
2023-07-25T08:23:38.056Z,965.15
2023-07-25T08:24:38.053Z,965.20
2023-07-25T08:25:38.041Z,965.18
2023-07-25T08:26:38.033Z,965.11
2023-07-25T08:27:38.010Z,965.07
2023-07-25T08:28:38.032Z,965.18
2023-07-25T08:29:37.992Z,965.12
2023-07-25T08:30:37.987Z,965.13
2023-07-25T08:31:37.972Z,965.12
2023-07-25T08:32:37.953Z,965.21
2023-07-25T08:33:37.932Z,965.13
2023-07-25T08:34:37.902Z,965.19
2023-07-25T08:35:38.045Z,965.12
2023-07-25T08:36:37.901Z,965.11
2023-07-25T08:37:37.881Z,965.18
2023-07-25T08:38:37.877Z,965.23
2023-07-25T08:39:37.874Z,965.17
2023-07-25T08:40:38.057Z,965.22
2023-07-25T08:41:37.892Z,965.18
2023-07-25T08:42:37.890Z,965.17
2023-07-25T08:43:37.832Z,965.14
2023-07-25T08:44:37.780Z,965.15
2023-07-25T08:45:38.016Z,965.18
2023-07-25T08:46:37.905Z,965.12
2023-07-25T08:47:37.793Z,965.12
2023-07-25T08:48:37.725Z,965.15
2023-07-25T08:49:37.711Z,965.19
2023-07-25T08:50:37.699Z,965.10
2023-07-25T08:51:37.702Z,965.24
2023-07-25T08:52:37.681Z,965.19
2023-07-25T08:53:37.662Z,965.11
2023-07-25T08:54:37.660Z,965.16
2023-07-25T08:55:37.632Z,965.27
2023-07-25T08:56:37.612Z,965.27
2023-07-25T08:57:37.610Z,965.27
2023-07-25T08:58:37.597Z,965.30
2023-07-25T08:59:37.581Z,965.30
2023-07-25T09:00:37.569Z,965.24
2023-07-25T09:01:37.564Z,965.27
2023-07-25T09:02:37.611Z,965.11
2023-07-25T09:03:37.644Z,965.17
2023-07-25T09:04:37.522Z,965.27
2023-07-25T09:05:37.517Z,965.14
2023-07-25T09:06:37.489Z,965.02
2023-07-25T09:07:37.496Z,965.00
2023-07-25T09:08:37.459Z,964.99
2023-07-25T09:09:37.462Z,965.07
2023-07-25T09:10:37.457Z,964.95
2023-07-25T09:11:37.425Z,964.99
2023-07-25T09:12:37.422Z,965.02
2023-07-25T09:13:37.402Z,964.98
2023-07-25T09:14:37.387Z,964.94
2023-07-25T09:15:37.375Z,965.05
2023-07-25T09:16:37.457Z,965.00
2023-07-25T09:17:37.401Z,965.05
2023-07-25T09:18:37.325Z,965.03
2023-07-25T09:19:37.328Z,964.95
2023-07-25T09:20:37.299Z,965.12
2023-07-25T09:21:37.290Z,965.08
2023-07-25T09:22:37.277Z,964.96
2023-07-25T09:23:37.297Z,965.11
2023-07-25T09:24:37.305Z,965.03
2023-07-25T09:25:37.257Z,965.00
2023-07-25T09:26:37.234Z,964.97
2023-07-25T09:27:37.240Z,965.02
2023-07-25T09:28:37.221Z,964.95
2023-07-25T09:29:37.191Z,964.97
2023-07-25T09:30:37.173Z,964.91
2023-07-25T09:31:37.209Z,964.94
2023-07-25T09:32:37.195Z,964.96
2023-07-25T09:33:37.136Z,964.94
2023-07-25T09:34:39.161Z,964.87
2023-07-25T09:35:37.169Z,964.95
2023-07-25T09:36:37.096Z,964.86
2023-07-25T09:37:37.089Z,964.87
2023-07-25T09:38:37.089Z,964.80
2023-07-25T09:39:37.090Z,964.82
2023-07-25T09:40:37.056Z,964.77
2023-07-25T09:41:37.038Z,964.85
2023-07-25T09:42:37.019Z,964.84
2023-07-25T09:43:37.011Z,964.87
2023-07-25T09:44:36.992Z,964.88
2023-07-25T09:45:37.062Z,964.86
2023-07-25T09:46:36.978Z,964.81
2023-07-25T09:47:36.993Z,964.87
2023-07-25T09:48:36.964Z,964.82
2023-07-25T09:49:36.929Z,964.86
2023-07-25T09:51:10.750Z,965.00
2023-07-25T09:52:10.391Z,965.00
2023-07-25T09:53:10.325Z,965.04
2023-07-25T09:54:10.312Z,964.95
2023-07-25T09:55:10.453Z,964.94
2023-07-25T09:56:10.385Z,964.88
2023-07-25T09:57:10.277Z,964.91
2023-07-25T09:58:10.608Z,964.86
2023-07-25T09:59:10.643Z,964.88
2023-07-25T10:00:10.229Z,964.75
2023-07-25T10:01:10.289Z,964.80
2023-07-25T10:02:11.397Z,964.76
2023-07-25T10:03:10.281Z,964.90
2023-07-25T10:04:10.194Z,964.80
2023-07-25T10:05:10.172Z,964.89
2023-07-25T10:06:10.166Z,964.80
2023-07-25T10:07:10.150Z,964.86
2023-07-25T10:08:10.131Z,964.86
2023-07-25T10:09:10.116Z,964.92
2023-07-25T10:10:10.104Z,964.97
2023-07-25T10:11:10.120Z,964.90
2023-07-25T10:12:10.133Z,964.99
2023-07-25T10:13:10.069Z,964.93
2023-07-25T10:14:10.626Z,964.95
2023-07-25T10:15:10.039Z,964.82
2023-07-25T10:16:10.120Z,964.84
2023-07-25T10:17:10.027Z,964.85
2023-07-25T10:18:10.004Z,964.79
2023-07-25T10:19:09.998Z,964.76
2023-07-25T10:20:11.688Z,964.67
2023-07-25T10:21:09.964Z,964.73
2023-07-25T10:22:09.953Z,964.82
2023-07-25T10:23:09.943Z,964.63
2023-07-25T10:24:09.932Z,964.67
2023-07-25T10:25:09.908Z,964.76
2023-07-25T10:26:10.682Z,964.72
2023-07-25T10:27:09.912Z,964.70
2023-07-25T10:28:09.893Z,964.73
2023-07-25T10:29:09.865Z,964.71
2023-07-25T10:30:09.851Z,964.82
2023-07-25T10:31:09.876Z,964.84
2023-07-25T10:32:11.868Z,964.77
2023-07-25T10:33:09.812Z,964.75
2023-07-25T10:34:09.801Z,964.82
2023-07-25T10:35:09.800Z,964.85
2023-07-25T10:36:09.778Z,964.92
2023-07-25T10:37:09.759Z,964.86
2023-07-25T10:38:10.071Z,964.88
2023-07-25T10:39:09.743Z,964.87
2023-07-25T10:40:10.080Z,964.88
2023-07-25T10:41:09.711Z,964.85
2023-07-25T10:42:09.693Z,964.82
2023-07-25T10:43:09.709Z,964.91
2023-07-25T10:44:09.686Z,964.81
2023-07-25T10:45:09.660Z,964.92
2023-07-25T10:46:09.641Z,964.88
2023-07-25T10:47:09.979Z,964.93
2023-07-25T10:48:09.737Z,964.80
2023-07-25T10:49:09.607Z,964.82
2023-07-25T10:50:09.602Z,964.76
2023-07-25T10:51:09.585Z,964.82
2023-07-25T10:52:09.565Z,964.73
2023-07-25T10:53:09.548Z,964.77
2023-07-25T10:54:09.547Z,964.82
2023-07-25T10:55:09.531Z,964.81
2023-07-25T10:56:10.419Z,964.82
2023-07-25T10:57:09.497Z,964.91
2023-07-25T10:58:09.485Z,964.95
2023-07-25T10:59:09.522Z,964.97
2023-07-25T11:00:09.460Z,965.05
2023-07-25T11:01:09.471Z,964.93
2023-07-25T11:02:09.441Z,964.77
2023-07-25T11:03:09.423Z,964.87
2023-07-25T11:04:09.434Z,964.68
2023-07-25T11:05:09.401Z,964.63
2023-07-25T11:06:09.388Z,964.76
2023-07-25T11:07:09.372Z,964.71
2023-07-25T11:08:09.384Z,964.73
2023-07-25T11:09:09.344Z,964.63
2023-07-25T11:10:09.354Z,964.71
2023-07-25T11:11:42.783Z,964.69
2023-07-25T11:12:42.745Z,964.59
2023-07-25T11:13:42.746Z,964.62
2023-07-25T11:14:42.743Z,964.58
2023-07-25T11:15:47.571Z,964.68
2023-07-25T11:16:42.751Z,964.64
2023-07-25T11:17:42.680Z,964.61
2023-07-25T11:18:42.708Z,964.66
2023-07-25T11:19:42.664Z,964.72
2023-07-25T11:20:42.680Z,964.67
2023-07-25T11:21:42.625Z,964.67
2023-07-25T11:22:42.614Z,964.71
2023-07-25T11:23:42.596Z,964.69
2023-07-25T11:24:42.635Z,964.70
2023-07-25T11:25:42.643Z,964.64
2023-07-25T11:26:42.564Z,964.78
2023-07-25T11:27:42.546Z,964.80
2023-07-25T11:28:42.551Z,964.85
2023-07-25T11:29:42.532Z,964.85
2023-07-25T11:30:42.550Z,964.84
2023-07-25T11:31:42.699Z,964.88
2023-07-25T11:32:42.502Z,964.82
2023-07-25T11:33:42.471Z,964.81
2023-07-25T11:34:42.463Z,964.73
2023-07-25T11:35:42.469Z,964.70
2023-07-25T11:36:42.437Z,964.71
2023-07-25T11:37:42.421Z,964.67
2023-07-25T11:38:42.405Z,964.75
2023-07-25T11:39:42.394Z,964.69
2023-07-25T11:40:42.375Z,964.67
2023-07-25T11:41:42.360Z,964.61
2023-07-25T11:42:42.350Z,964.75
2023-07-25T11:43:44.122Z,964.64
2023-07-25T11:44:42.322Z,964.73
2023-07-25T11:45:42.309Z,964.65
2023-07-25T11:46:42.433Z,964.60
2023-07-25T11:47:42.321Z,964.66
2023-07-25T11:48:42.276Z,964.72
2023-07-25T11:49:51.614Z,964.70
2023-07-25T11:50:43.276Z,964.66
2023-07-25T11:51:42.237Z,964.71
2023-07-25T11:52:42.223Z,964.64
2023-07-25T11:53:42.215Z,964.70
2023-07-25T11:54:42.202Z,964.76
2023-07-25T11:55:44.151Z,964.79
2023-07-25T11:56:43.407Z,964.81
2023-07-25T11:57:42.159Z,964.83
2023-07-25T11:58:43.742Z,964.80
2023-07-25T11:59:42.474Z,964.71
2023-07-25T12:00:42.135Z,964.88
2023-07-25T12:01:42.179Z,964.83
2023-07-25T12:02:42.154Z,964.87
2023-07-25T12:03:42.152Z,964.84
2023-07-25T12:04:42.062Z,964.84
2023-07-25T12:05:42.055Z,964.84
2023-07-25T12:06:42.040Z,964.86
2023-07-25T12:07:42.028Z,964.83
2023-07-25T12:08:42.055Z,964.85
2023-07-25T12:09:42.109Z,964.77
2023-07-25T12:10:41.987Z,964.74
2023-07-25T12:11:41.979Z,964.77
2023-07-25T12:12:42.976Z,964.74
2023-07-25T12:13:41.947Z,964.63
2023-07-25T12:14:41.946Z,964.73
2023-07-25T12:15:41.928Z,964.75
2023-07-25T12:16:41.929Z,964.69
2023-07-25T12:17:42.200Z,964.67
2023-07-25T12:18:41.903Z,964.64
2023-07-25T12:19:41.867Z,964.61
2023-07-25T12:20:56.214Z,964.65
2023-07-25T12:21:43.077Z,964.54
2023-07-25T12:22:41.829Z,964.62
2023-07-25T12:23:41.837Z,964.58
2023-07-25T12:24:41.984Z,964.53
2023-07-25T12:25:41.788Z,964.56
2023-07-25T12:26:41.777Z,964.51
2023-07-25T12:27:41.767Z,964.43
2023-07-25T12:28:41.747Z,964.37
2023-07-25T12:29:41.732Z,964.48